Time;durP1;ratioP1;P1;durP2;ratioP2;P2;SDS_P1;SDS_P2;PMS_P1;PMS_P2;Temp;Humidity;BMP_temperature;BMP_pressure;BME280_temperature;BME280_humidity;BME280_pressure;Samples;Min_cycle;Max_cycle;Signal;HPM_P1;HPM_P2
2022/09/28 00:00:46;;;;;;;7.97;2.80;;;8.00;99.90;;;;;;5065522;23;20189;-68
2022/09/28 00:02:47;;;;;;;8.50;2.17;;;8.00;99.90;;;;;;5065994;23;20637;-68
2022/09/28 00:04:47;;;;;;;7.03;2.73;;;8.00;99.90;;;;;;5067950;23;20247;-68
2022/09/28 00:06:48;;;;;;;5.83;2.00;;;8.00;99.90;;;;;;5068017;23;20164;-69
2022/09/28 00:08:49;;;;;;;5.70;1.60;;;8.00;99.90;;;;;;5067730;23;20615;-68
2022/09/28 00:10:56;;;;;;;7.20;2.37;;;8.10;99.90;;;;;;5067024;23;20572;-68
2022/09/28 00:12:59;;;;;;;9.37;1.87;;;8.10;99.90;;;;;;5067522;23;20188;-68
2022/09/28 00:15:00;;;;;;;11.90;1.93;;;8.20;99.90;;;;;;5067905;23;20166;-68
2022/09/28 00:17:00;;;;;;;7.57;2.10;;;8.10;99.90;;;;;;5067590;23;20173;-69
2022/09/28 00:19:02;;;;;;;8.30;2.20;;;8.10;99.90;;;;;;5067660;23;20170;-68
2022/09/28 00:21:13;;;;;;;2.80;1.53;;;8.20;99.90;;;;;;5066932;23;20183;-69
2022/09/28 00:23:14;;;;;;;4.47;2.57;;;8.20;99.90;;;;;;5067602;23;20181;-68
2022/09/28 00:25:15;;;;;;;9.00;1.63;;;8.20;99.90;;;;;;5067730;23;20242;-69
2022/09/28 00:27:16;;;;;;;3.93;1.60;;;8.20;99.90;;;;;;5067912;23;20170;-68
2022/09/28 00:29:25;;;;;;;5.43;1.77;;;8.20;99.90;;;;;;5067438;23;20167;-69
2022/09/28 00:31:30;;;;;;;4.17;2.00;;;8.30;99.90;;;;;;5066769;23;20665;-68
2022/09/28 00:33:30;;;;;;;5.70;1.60;;;8.30;99.90;;;;;;5067637;23;20202;-68
2022/09/28 00:35:31;;;;;;;2.93;1.30;;;8.20;99.90;;;;;;5067362;23;20316;-68
2022/09/28 00:37:32;;;;;;;9.63;1.40;;;8.30;99.90;;;;;;5067472;23;20589;-68
2022/09/28 00:39:34;;;;;;;3.60;1.10;;;8.30;99.90;;;;;;5067344;23;20795;-68
2022/09/28 00:41:35;;;;;;;3.17;1.30;;;8.30;99.90;;;;;;5066880;23;20211;-68
2022/09/28 00:43:36;;;;;;;6.00;1.50;;;8.20;99.90;;;;;;5068258;23;20181;-68
2022/09/28 00:45:36;;;;;;;4.13;1.30;;;8.30;99.90;;;;;;5067895;23;20165;-68
2022/09/28 00:47:48;;;;;;;6.13;1.67;;;8.30;99.90;;;;;;5041466;23;20167;-68
2022/09/28 00:50:27;;;;;;;4.77;1.50;;;8.20;99.90;;;;;;5067353;23;20610;-68
2022/09/28 00:52:33;;;;;;;5.73;1.20;;;8.20;99.90;;;;;;5064459;23;20198;-68
2022/09/28 00:54:35;;;;;;;5.00;1.83;;;8.20;99.90;;;;;;5067399;23;20225;-67
2022/09/28 00:56:39;;;;;;;5.80;1.30;;;8.20;99.90;;;;;;5067169;23;20791;-68
2022/09/28 00:58:47;;;;;;;9.63;3.30;;;8.20;99.90;;;;;;5067121;23;20162;-68
2022/09/28 01:00:48;;;;;;;2.67;1.33;;;8.20;99.90;;;;;;5066169;23;20234;-68
2022/09/28 01:02:49;;;;;;;10.17;1.97;;;8.20;99.90;;;;;;5067207;23;20213;-67
2022/09/28 01:04:51;;;;;;;4.20;2.53;;;8.10;99.90;;;;;;5067367;23;20158;-68
2022/09/28 01:06:51;;;;;;;4.50;1.43;;;8.10;99.90;;;;;;5067263;23;20164;-68
2022/09/28 01:08:57;;;;;;;3.60;1.27;;;8.10;99.90;;;;;;5067186;23;20763;-68
2022/09/28 01:10:58;;;;;;;3.57;1.00;;;8.10;99.90;;;;;;5066540;23;20150;-68
2022/09/28 01:12:59;;;;;;;4.60;0.93;;;8.10;99.90;;;;;;5066956;23;20251;-68
2022/09/28 01:15:00;;;;;;;3.53;1.10;;;8.10;99.90;;;;;;5066908;23;20175;-68
2022/09/28 01:17:24;;;;;;;4.60;1.00;;;8.10;99.90;;;;;;5066976;23;20173;-67
2022/09/28 01:19:50;;;;;;;2.40;1.13;;;7.90;99.90;;;;;;5067198;23;20213;-67
2022/09/28 01:22:13;;;;;;;3.67;2.23;;;7.90;99.90;;;;;;5066212;23;20211;-68
2022/09/28 01:24:29;;;;;;;3.97;1.20;;;7.90;99.90;;;;;;5067153;23;20666;-68
2022/09/28 01:26:49;;;;;;;2.83;0.90;;;7.90;99.90;;;;;;5067079;23;20425;-68
2022/09/28 01:29:01;;;;;;;4.37;1.07;;;7.80;99.90;;;;;;5041153;23;20193;-68
2022/09/28 01:31:10;;;;;;;2.03;1.00;;;7.80;99.90;;;;;;5066326;23;20583;-68
2022/09/28 01:33:21;;;;;;;1.93;0.90;;;7.80;99.90;;;;;;5066666;23;20201;-67
2022/09/28 01:35:22;;;;;;;2.07;1.43;;;7.90;99.90;;;;;;5066843;23;20757;-67
2022/09/28 01:37:28;;;;;;;3.23;1.07;;;7.90;99.90;;;;;;5066998;23;20157;-68
2022/09/28 01:39:34;;;;;;;4.40;1.17;;;7.90;99.90;;;;;;5066962;23;20157;-68
2022/09/28 01:41:39;;;;;;;2.47;1.03;;;7.90;99.90;;;;;;5066006;23;20202;-68
2022/09/28 01:43:44;;;;;;;2.67;1.07;;;7.90;99.90;;;;;;5067217;23;20681;-68
2022/09/28 01:45:48;;;;;;;6.67;3.10;;;7.80;99.90;;;;;;5066905;23;20320;-67
2022/09/28 01:47:50;;;;;;;1.07;0.80;;;7.90;99.90;;;;;;5066937;23;20162;-68
2022/09/28 01:50:09;;;;;;;0.77;0.67;;;7.90;99.90;;;;;;5041134;23;20422;-68
2022/09/28 01:52:28;;;;;;;2.80;1.30;;;7.80;99.90;;;;;;5066498;23;20223;-67
2022/09/28 01:54:39;;;;;;;4.30;0.90;;;7.70;99.90;;;;;;5041112;23;20604;-68
2022/09/28 01:56:51;;;;;;;3.80;1.10;;;7.80;99.90;;;;;;5065151;23;20549;-67
2022/09/28 01:59:05;;;;;;;1.53;0.70;;;7.80;99.90;;;;;;5066676;23;20409;-67
2022/09/28 02:01:15;;;;;;;2.90;0.90;;;7.70;99.90;;;;;;5066006;23;20250;-67
2022/09/28 02:03:35;;;;;;;3.23;1.07;;;7.80;99.90;;;;;;5066783;23;20191;-68
2022/09/28 02:05:39;;;;;;;1.47;0.70;;;7.90;99.90;;;;;;5066892;23;20158;-68
2022/09/28 02:07:46;;;;;;;3.37;0.97;;;7.80;99.90;;;;;;5066537;23;20515;-68
2022/09/28 02:10:11;;;;;;;1.20;0.80;;;7.80;99.90;;;;;;5066727;23;20493;-68
2022/09/28 02:12:21;;;;;;;1.37;0.60;;;7.80;99.90;;;;;;5066544;23;20179;-68
2022/09/28 02:14:24;;;;;;;2.90;1.17;;;7.80;99.90;;;;;;5066826;23;20149;-67
2022/09/28 02:16:38;;;;;;;1.60;0.60;;;7.80;99.90;;;;;;5066594;23;20211;-68
2022/09/28 02:18:38;;;;;;;1.33;0.70;;;7.80;99.90;;;;;;5066718;23;20146;-68
2022/09/28 02:20:46;;;;;;;1.73;1.07;;;7.80;99.90;;;;;;5065807;23;20997;-68
2022/09/28 02:22:50;;;;;;;0.80;0.80;;;7.80;99.90;;;;;;5059982;23;20181;-68
2022/09/28 02:25:29;;;;;;;1.20;0.80;;;7.80;99.90;;;;;;5066368;23;20559;-68
2022/09/28 02:27:40;;;;;;;1.43;0.70;;;7.80;99.90;;;;;;5065158;23;20244;-69
2022/09/28 02:29:41;;;;;;;2.10;0.80;;;7.90;99.90;;;;;;5066608;23;20501;-68
2022/09/28 02:31:41;;;;;;;0.57;0.57;;;7.90;99.90;;;;;;5065656;23;20173;-68
2022/09/28 02:33:43;;;;;;;0.60;0.60;;;7.90;99.90;;;;;;5066302;23;20590;-69
2022/09/28 02:35:44;;;;;;;0.60;0.60;;;7.90;99.90;;;;;;5066483;23;20209;-68
2022/09/28 02:37:45;;;;;;;1.60;0.60;;;7.90;99.90;;;;;;5065602;23;20177;-68
2022/09/28 02:39:46;;;;;;;1.10;0.60;;;7.90;99.90;;;;;;5066038;23;20195;-68
2022/09/28 02:41:54;;;;;;;0.93;0.60;;;7.90;99.90;;;;;;5065628;23;20390;-68
2022/09/28 02:44:16;;;;;;;2.13;0.60;;;7.90;99.90;;;;;;5066798;23;20156;-68
2022/09/28 02:46:27;;;;;;;0.77;0.47;;;7.90;99.90;;;;;;5040769;23;20163;-68
2022/09/28 02:48:46;;;;;;;1.67;0.60;;;7.90;99.90;;;;;;5066398;23;20489;-68
2022/09/28 02:50:52;;;;;;;3.40;0.73;;;7.90;99.90;;;;;;5065835;23;20155;-68
2022/09/28 02:53:25;;;;;;;1.70;0.50;;;7.90;99.90;;;;;;5066399;23;20419;-68
2022/09/28 02:55:47;;;;;;;1.90;0.60;;;8.00;99.90;;;;;;5040221;23;20221;-68
2022/09/28 02:58:02;;;;;;;1.00;0.70;;;8.00;99.90;;;;;;5066502;23;20234;-68
2022/09/28 03:00:13;;;;;;;0.50;0.50;;;8.00;99.90;;;;;;5066230;23;20192;-68
2022/09/28 03:02:32;;;;;;;0.93;0.50;;;7.90;99.90;;;;;;5066369;23;20565;-68
2022/09/28 03:04:59;;;;;;;2.87;0.70;;;8.00;99.90;;;;;;5040294;23;20228;-68
2022/09/28 03:07:05;;;;;;;0.87;0.50;;;8.00;99.90;;;;;;5066371;23;20595;-68
2022/09/28 03:09:17;;;;;;;0.50;0.50;;;8.10;99.90;;;;;;5066029;23;20174;-68
2022/09/28 03:11:23;;;;;;;1.73;0.50;;;8.10;99.90;;;;;;5065455;23;20148;-68
2022/09/28 03:13:25;;;;;;;1.00;0.60;;;8.00;99.90;;;;;;5066158;23;20882;-68
2022/09/28 03:15:28;;;;;;;0.70;0.70;;;8.00;99.90;;;;;;5040144;23;20410;-69
2022/09/28 03:17:29;;;;;;;0.80;0.50;;;8.20;99.90;;;;;;5066214;23;20216;-69
2022/09/28 03:19:32;;;;;;;0.50;0.50;;;8.20;99.90;;;;;;5066180;23;20557;-69
2022/09/28 03:21:32;;;;;;;0.50;0.50;;;8.20;99.90;;;;;;5065130;23;20186;-67
2022/09/28 03:23:33;;;;;;;0.40;0.40;;;8.20;99.90;;;;;;5066379;23;20213;-68
2022/09/28 03:25:34;;;;;;;0.50;0.50;;;8.20;99.90;;;;;;5066018;23;20186;-67
2022/09/28 03:27:34;;;;;;;0.60;0.60;;;8.20;99.90;;;;;;5066412;23;20224;-67
2022/09/28 03:29:35;;;;;;;0.53;0.50;;;8.20;99.90;;;;;;5066011;23;20161;-67
2022/09/28 03:31:35;;;;;;;0.70;0.60;;;8.30;99.90;;;;;;5065250;23;20165;-68
2022/09/28 03:33:36;;;;;;;2.50;0.63;;;8.30;99.90;;;;;;5065977;23;20200;-67
2022/09/28 03:35:36;;;;;;;1.97;0.90;;;8.30;99.90;;;;;;5066092;23;20557;-68
2022/09/28 03:37:37;;;;;;;1.77;1.30;;;8.40;99.90;;;;;;5040017;23;20224;-67
2022/09/28 03:39:38;;;;;;;1.07;0.70;;;8.40;99.90;;;;;;5065843;23;20226;-67
2022/09/28 03:41:38;;;;;;;0.80;0.77;;;8.40;99.90;;;;;;5065096;23;20192;-67
2022/09/28 03:43:39;;;;;;;0.70;0.70;;;8.40;99.90;;;;;;5039994;23;20283;-67
2022/09/28 03:45:40;;;;;;;1.73;0.60;;;8.40;99.90;;;;;;5065839;23;20163;-67
2022/09/28 03:47:47;;;;;;;0.57;0.57;;;8.50;99.90;;;;;;5065853;23;20162;-67
2022/09/28 03:49:48;;;;;;;0.43;0.40;;;8.60;99.90;;;;;;5066063;23;20226;-67
2022/09/28 03:51:48;;;;;;;0.70;0.60;;;8.50;99.90;;;;;;5065132;23;20637;-67
2022/09/28 03:53:49;;;;;;;0.60;0.60;;;8.60;99.90;;;;;;5065988;23;20233;-67
2022/09/28 03:55:52;;;;;;;0.83;0.80;;;8.60;99.90;;;;;;5066077;23;20241;-67
2022/09/28 03:57:54;;;;;;;1.30;1.00;;;8.60;99.90;;;;;;5065810;23;20159;-67
2022/09/28 03:59:55;;;;;;;1.07;0.60;;;8.70;99.90;;;;;;5039885;23;20256;-67
2022/09/28 04:01:56;;;;;;;1.10;1.00;;;8.70;99.90;;;;;;5065047;23;20165;-67
2022/09/28 04:03:57;;;;;;;1.13;0.90;;;8.70;99.90;;;;;;5066455;23;20172;-67
2022/09/28 04:05:58;;;;;;;1.47;1.00;;;8.60;99.90;;;;;;5065890;23;20248;-68
2022/09/28 04:07:58;;;;;;;0.60;0.60;;;8.60;99.90;;;;;;5065780;23;20213;-68
2022/09/28 04:09:59;;;;;;;1.63;1.17;;;8.70;99.90;;;;;;5065843;23;20474;-67
2022/09/28 04:12:00;;;;;;;0.60;0.60;;;8.70;99.90;;;;;;5065787;23;20165;-68
2022/09/28 04:14:00;;;;;;;0.73;0.67;;;8.60;99.90;;;;;;5066030;23;20162;-68
2022/09/28 04:16:01;;;;;;;2.00;0.63;;;8.70;99.90;;;;;;5065977;23;20605;-68
2022/09/28 04:18:01;;;;;;;0.70;0.60;;;8.70;99.90;;;;;;5065883;23;20156;-68
2022/09/28 04:20:02;;;;;;;1.43;1.10;;;8.70;99.90;;;;;;5065644;23;20177;-68
2022/09/28 04:22:03;;;;;;;1.17;0.40;;;8.60;99.90;;;;;;5065272;23;20226;-68
2022/09/28 04:24:04;;;;;;;0.63;0.63;;;8.70;99.90;;;;;;5065865;23;20155;-68
2022/09/28 04:26:08;;;;;;;0.30;0.30;;;8.70;99.90;;;;;;5064482;23;20169;-68
2022/09/28 04:30:27;;;;;;;1.73;0.77;;;8.70;99.90;;;;;;5065503;23;20179;-67
2022/09/28 04:32:28;;;;;;;0.60;0.60;;;8.70;99.90;;;;;;5065042;23;20404;-68
2022/09/28 04:34:28;;;;;;;0.50;0.50;;;8.70;99.90;;;;;;5065981;23;20268;-68
2022/09/28 04:36:29;;;;;;;0.97;0.77;;;8.70;99.90;;;;;;5066122;23;20189;-68
2022/09/28 04:38:29;;;;;;;0.43;0.43;;;8.80;99.90;;;;;;5065966;23;20612;-68
2022/09/28 04:40:30;;;;;;;1.03;1.00;;;8.90;99.90;;;;;;5065132;23;20998;-68
2022/09/28 04:42:30;;;;;;;1.60;0.70;;;8.80;99.90;;;;;;5065967;23;20632;-68
2022/09/28 04:44:31;;;;;;;0.53;0.50;;;8.80;99.90;;;;;;5066385;23;20161;-68
2022/09/28 04:46:32;;;;;;;0.87;0.63;;;8.90;99.90;;;;;;5066175;23;20196;-68
2022/09/28 04:48:33;;;;;;;0.67;0.57;;;8.80;99.90;;;;;;5065925;23;20585;-68
2022/09/28 04:50:33;;;;;;;1.73;0.70;;;8.80;99.90;;;;;;5065648;23;20215;-69
2022/09/28 04:52:36;;;;;;;0.60;0.57;;;8.90;99.90;;;;;;5067027;23;20186;-70
2022/09/28 04:54:36;;;;;;;1.20;0.80;;;8.90;99.90;;;;;;5067199;23;20599;-68
2022/09/28 04:56:37;;;;;;;0.50;0.50;;;8.80;99.90;;;;;;5041511;23;20210;-67
2022/09/28 04:58:38;;;;;;;1.13;0.77;;;8.80;99.90;;;;;;5067191;23;20161;-67
2022/09/28 05:00:39;;;;;;;1.17;0.60;;;8.80;99.90;;;;;;5066412;23;20665;-67
2022/09/28 05:02:39;;;;;;;0.30;0.30;;;8.80;99.90;;;;;;5067505;23;20181;-67
2022/09/28 05:04:40;;;;;;;0.40;0.40;;;8.80;99.90;;;;;;5067214;23;20368;-67
2022/09/28 05:06:40;;;;;;;1.60;0.50;;;8.80;99.90;;;;;;5067083;23;20189;-68
2022/09/28 05:08:41;;;;;;;0.50;0.50;;;8.80;99.90;;;;;;5067161;23;20165;-68
2022/09/28 05:10:42;;;;;;;0.40;0.40;;;8.80;99.90;;;;;;5066475;23;20240;-68
2022/09/28 05:12:43;;;;;;;0.70;0.70;;;8.80;99.90;;;;;;5067109;23;20183;-68
2022/09/28 05:14:43;;;;;;;0.60;0.60;;;8.80;99.90;;;;;;5067240;23;20585;-68
2022/09/28 05:16:44;;;;;;;0.43;0.43;;;8.80;99.90;;;;;;5067174;23;20176;-67
2022/09/28 05:18:46;;;;;;;0.83;0.80;;;8.80;99.90;;;;;;5067037;23;20254;-68
2022/09/28 05:20:46;;;;;;;0.40;0.40;;;8.80;99.90;;;;;;5066573;23;20242;-68
2022/09/28 05:22:47;;;;;;;0.60;0.60;;;8.70;99.90;;;;;;5041155;23;20189;-68
2022/09/28 05:24:48;;;;;;;0.40;0.40;;;8.70;99.90;;;;;;5066890;23;20182;-68
2022/09/28 05:26:48;;;;;;;0.40;0.40;;;8.80;99.90;;;;;;5067071;23;20265;-68
2022/09/28 05:28:49;;;;;;;0.60;0.60;;;8.80;99.90;;;;;;5041062;23;20189;-68
2022/09/28 05:30:51;;;;;;;1.17;0.90;;;8.80;99.90;;;;;;5066406;23;20257;-68
2022/09/28 05:32:52;;;;;;;0.40;0.40;;;8.90;99.90;;;;;;5067179;23;20526;-68
2022/09/28 05:34:54;;;;;;;0.80;0.70;;;8.90;99.90;;;;;;5041296;23;20185;-67
2022/09/28 05:36:55;;;;;;;0.60;0.60;;;8.90;99.90;;;;;;5067155;23;20169;-68
2022/09/28 05:38:55;;;;;;;1.07;0.60;;;8.90;99.90;;;;;;5067369;23;20169;-68
2022/09/28 05:40:56;;;;;;;0.93;0.67;;;8.90;99.90;;;;;;5066125;23;20190;-68
2022/09/28 05:43:00;;;;;;;0.57;0.57;;;8.90;99.90;;;;;;5040983;23;20639;-68
2022/09/28 05:45:02;;;;;;;1.50;1.20;;;9.00;99.90;;;;;;5066721;23;20162;-68
2022/09/28 05:47:03;;;;;;;0.73;0.73;;;8.90;99.90;;;;;;5066815;23;20233;-68
2022/09/28 05:49:03;;;;;;;0.80;0.60;;;8.90;99.90;;;;;;5067038;23;20173;-68
2022/09/28 05:51:04;;;;;;;1.40;0.90;;;8.90;99.90;;;;;;5065870;23;20172;-68
2022/09/28 05:53:09;;;;;;;0.63;0.63;;;8.90;99.90;;;;;;5067248;23;20206;-68
2022/09/28 05:55:10;;;;;;;0.60;0.60;;;9.00;99.90;;;;;;5067102;23;20193;-68
2022/09/28 05:57:11;;;;;;;0.77;0.70;;;8.90;99.90;;;;;;5066911;23;20166;-68
2022/09/28 05:59:12;;;;;;;0.50;0.50;;;8.80;99.90;;;;;;5066884;23;20168;-68
2022/09/28 06:01:12;;;;;;;1.00;0.80;;;8.80;99.90;;;;;;5065767;23;20817;-68
2022/09/28 06:03:13;;;;;;;0.80;0.80;;;8.80;99.90;;;;;;5067115;23;20181;-68
2022/09/28 06:05:14;;;;;;;2.67;0.70;;;8.90;99.90;;;;;;5066916;23;20168;-68
2022/09/28 06:07:15;;;;;;;0.47;0.47;;;9.00;99.90;;;;;;5066532;23;20441;-68
2022/09/28 06:09:15;;;;;;;0.50;0.50;;;9.00;99.90;;;;;;5041052;23;20166;-68
2022/09/28 06:11:16;;;;;;;0.50;0.50;;;8.90;99.90;;;;;;5066630;23;20248;-69
2022/09/28 06:13:16;;;;;;;0.60;0.60;;;8.80;99.90;;;;;;5066736;23;20183;-68
2022/09/28 06:15:17;;;;;;;0.40;0.40;;;8.60;99.90;;;;;;5067230;23;20161;-68
2022/09/28 06:17:17;;;;;;;0.40;0.40;;;8.50;99.90;;;;;;5066701;23;20606;-68
2022/09/28 06:19:18;;;;;;;0.40;0.40;;;8.50;99.90;;;;;;5067018;23;20161;-68
2022/09/28 06:21:18;;;;;;;1.07;0.40;;;8.50;99.90;;;;;;5066268;23;20643;-70
2022/09/28 06:23:19;;;;;;;0.50;0.50;;;8.40;99.90;;;;;;5066871;23;20193;-68
2022/09/28 06:25:21;;;;;;;0.57;0.40;;;8.30;99.90;;;;;;5066928;23;20317;-68
2022/09/28 06:27:21;;;;;;;0.80;0.50;;;8.30;99.90;;;;;;5040790;23;20169;-67
2022/09/28 06:29:22;;;;;;;0.60;0.60;;;8.30;99.90;;;;;;5066546;23;20158;-68
2022/09/28 06:31:23;;;;;;;1.93;0.77;;;8.30;99.90;;;;;;5065695;23;20164;-68
2022/09/28 06:33:25;;;;;;;1.20;0.50;;;8.30;99.90;;;;;;5066527;23;20519;-68
2022/09/28 06:35:29;;;;;;;0.50;0.50;;;8.40;99.90;;;;;;5066733;23;20170;-67
2022/09/28 06:37:31;;;;;;;0.50;0.47;;;8.30;99.90;;;;;;5066397;23;20172;-68
2022/09/28 06:39:32;;;;;;;0.40;0.40;;;8.40;99.90;;;;;;5066330;23;20167;-68
2022/09/28 06:41:33;;;;;;;1.30;0.60;;;8.30;99.90;;;;;;5065821;23;20433;-68
2022/09/28 06:43:34;;;;;;;1.20;0.67;;;8.20;99.90;;;;;;5066522;23;20326;-68
2022/09/28 06:45:35;;;;;;;1.33;0.70;;;8.10;99.90;;;;;;5066663;23;20161;-68
2022/09/28 06:47:36;;;;;;;2.97;0.90;;;8.00;99.90;;;;;;5067133;23;20183;-68
2022/09/28 06:49:37;;;;;;;1.03;0.80;;;8.00;99.90;;;;;;5066806;23;20156;-68
2022/09/28 06:51:37;;;;;;;0.83;0.63;;;7.90;99.90;;;;;;5066204;23;20185;-68
2022/09/28 06:53:38;;;;;;;2.60;1.10;;;7.80;99.90;;;;;;5066555;23;20479;-68
2022/09/28 06:55:45;;;;;;;1.57;0.80;;;7.80;99.90;;;;;;5066414;23;20166;-69
2022/09/28 06:57:45;;;;;;;1.17;0.70;;;7.80;99.90;;;;;;5066524;23;20159;-67
2022/09/28 06:59:46;;;;;;;1.00;0.90;;;7.70;99.90;;;;;;5065866;23;20853;-68
2022/09/28 07:01:46;;;;;;;1.27;0.73;;;7.60;99.90;;;;;;5065449;23;20196;-68
2022/09/28 07:03:47;;;;;;;3.97;1.10;;;7.60;99.90;;;;;;5066422;23;20177;-68
2022/09/28 07:05:49;;;;;;;6.13;0.90;;;7.70;99.90;;;;;;5066325;23;20155;-68
2022/09/28 07:07:50;;;;;;;1.17;0.87;;;7.80;99.90;;;;;;5065928;23;20154;-68
2022/09/28 07:09:54;;;;;;;1.37;1.23;;;7.80;99.90;;;;;;5066109;23;20401;-68
2022/09/28 07:11:54;;;;;;;2.33;1.33;;;7.70;99.90;;;;;;5065598;23;20603;-68
2022/09/28 07:13:55;;;;;;;3.13;0.70;;;7.60;99.90;;;;;;5065842;23;20386;-68
2022/09/28 07:15:58;;;;;;;1.60;0.80;;;7.60;99.90;;;;;;5066134;23;20221;-68
2022/09/28 07:18:04;;;;;;;1.10;0.90;;;7.60;99.90;;;;;;5040443;23;20268;-67
2022/09/28 07:20:05;;;;;;;1.70;0.87;;;7.60;99.90;;;;;;5040544;23;20443;-68
2022/09/28 07:22:05;;;;;;;5.77;1.20;;;7.60;99.90;;;;;;5065256;23;20867;-68
2022/09/28 07:24:06;;;;;;;3.27;1.77;;;7.60;99.90;;;;;;5066099;23;20753;-68
2022/09/28 07:26:06;;;;;;;2.03;1.30;;;7.60;99.90;;;;;;5066019;23;20160;-67
2022/09/28 07:28:08;;;;;;;4.87;1.00;;;7.60;99.90;;;;;;5040099;23;20615;-67
2022/09/28 07:30:09;;;;;;;2.60;1.10;;;7.60;99.90;;;;;;5064022;23;20169;-67
2022/09/28 07:32:10;;;;;;;2.07;0.90;;;7.60;99.90;;;;;;5065501;23;20165;-68
2022/09/28 07:34:11;;;;;;;3.10;1.10;;;7.70;99.90;;;;;;5039953;23;20969;-67
2022/09/28 07:36:11;;;;;;;2.73;0.93;;;7.80;99.90;;;;;;5041851;23;20875;-67
2022/09/28 07:38:12;;;;;;;2.70;0.80;;;7.80;99.90;;;;;;5041916;23;20204;-68
2022/09/28 07:42:31;;;;;;;3.87;0.97;;;8.00;99.90;;;;;;5041930;23;20922;-68
2022/09/28 07:44:32;;;;;;;2.20;0.90;;;8.20;99.90;;;;;;5041742;23;20389;-68
2022/09/28 07:46:34;;;;;;;2.03;1.03;;;8.20;99.90;;;;;;5041871;23;20159;-68
2022/09/28 07:48:35;;;;;;;3.07;1.10;;;8.30;99.90;;;;;;5042037;23;20217;-68
2022/09/28 07:50:36;;;;;;;4.27;1.37;;;8.40;99.90;;;;;;5041199;23;20176;-68
2022/09/28 07:52:36;;;;;;;2.23;0.83;;;8.30;99.90;;;;;;5042213;23;20182;-68
2022/09/28 07:54:38;;;;;;;1.77;1.53;;;8.20;99.90;;;;;;5041706;23;20195;-68
2022/09/28 07:56:38;;;;;;;3.47;0.90;;;8.30;99.90;;;;;;5038622;23;20163;-65
2022/09/28 07:58:39;;;;;;;3.00;1.30;;;8.40;99.90;;;;;;5021252;23;20242;-68
2022/09/28 08:00:40;;;;;;;3.33;1.00;;;8.30;99.90;;;;;;5022457;23;20260;-65
2022/09/28 08:02:40;;;;;;;3.63;1.50;;;8.30;99.90;;;;;;5021779;23;20221;-66
2022/09/28 08:04:41;;;;;;;1.20;1.00;;;8.70;99.90;;;;;;5022111;23;20176;-68
2022/09/28 08:06:43;;;;;;;2.87;1.20;;;8.80;99.90;;;;;;5032507;23;20158;-68
2022/09/28 08:08:44;;;;;;;2.27;1.17;;;8.70;99.90;;;;;;5037911;23;20190;-68
2022/09/28 08:10:44;;;;;;;1.53;1.13;;;8.70;99.90;;;;;;5040195;23;20174;-68
2022/09/28 08:12:46;;;;;;;1.63;1.10;;;8.80;99.90;;;;;;5040315;23;20310;-68
2022/09/28 08:14:48;;;;;;;4.17;1.10;;;8.80;99.90;;;;;;5040976;23;20175;-67
2022/09/28 08:16:48;;;;;;;2.10;1.20;;;8.80;99.90;;;;;;5040726;23;20175;-67
2022/09/28 08:18:49;;;;;;;5.53;2.57;;;9.00;99.90;;;;;;5040922;23;20173;-67
2022/09/28 08:23:11;;;;;;;5.83;1.97;;;9.00;99.90;;;;;;5040944;23;20277;-67
2022/09/28 08:25:11;;;;;;;2.40;1.10;;;8.90;99.90;;;;;;5041475;23;20253;-68
2022/09/28 08:27:14;;;;;;;2.90;1.00;;;8.90;99.90;;;;;;5042311;23;20245;-67
2022/09/28 08:29:15;;;;;;;2.77;1.30;;;8.80;99.90;;;;;;5042597;23;20276;-70
2022/09/28 08:31:16;;;;;;;4.50;1.70;;;8.80;99.90;;;;;;5041883;23;20159;-68
2022/09/28 08:33:20;;;;;;;11.97;5.70;;;8.90;99.90;;;;;;5040567;23;20193;-68
2022/09/28 08:35:21;;;;;;;2.53;1.73;;;9.00;99.90;;;;;;5042758;23;20169;-68
2022/09/28 08:37:21;;;;;;;9.90;4.53;;;9.10;99.90;;;;;;5042350;23;20613;-69
2022/09/28 08:39:22;;;;;;;3.60;1.20;;;9.00;99.90;;;;;;5040759;23;20155;-67
2022/09/28 08:41:22;;;;;;;1.73;1.10;;;9.10;99.90;;;;;;5041650;23;20568;-66
2022/09/28 08:43:47;;;;;;;3.07;1.00;;;8.90;99.90;;;;;;5042251;23;20185;-66
2022/09/28 08:45:49;;;;;;;1.50;1.10;;;8.90;99.90;;;;;;5042682;23;20178;-67
2022/09/28 08:50:31;;;;;;;1.30;0.90;;;9.00;99.90;;;;;;5042128;23;20202;-66
2022/09/28 08:52:38;;;;;;;1.20;1.10;;;9.00;99.90;;;;;;5042589;23;20179;-69
2022/09/28 08:54:47;;;;;;;1.87;1.10;;;8.80;99.90;;;;;;5042761;23;20637;-69
2022/09/28 08:56:53;;;;;;;1.87;1.10;;;8.90;99.90;;;;;;5042428;23;20217;-69
2022/09/28 08:58:59;;;;;;;4.23;1.00;;;8.70;99.90;;;;;;5042686;23;20146;-69
2022/09/28 09:01:01;;;;;;;3.40;1.10;;;8.70;99.90;;;;;;5039742;23;20204;-67
2022/09/28 09:03:06;;;;;;;1.50;0.90;;;8.70;99.90;;;;;;5042368;23;20186;-67
2022/09/28 09:05:13;;;;;;;1.07;0.93;;;8.70;99.90;;;;;;5040728;23;20234;-68
2022/09/28 09:07:23;;;;;;;1.33;1.00;;;8.70;99.90;;;;;;5042261;23;20491;-69
2022/09/28 09:09:38;;;;;;;3.77;1.37;;;8.50;99.90;;;;;;5042688;23;20158;-71
2022/09/28 09:11:59;;;;;;;1.57;1.10;;;8.70;99.90;;;;;;5041472;23;20154;-68
2022/09/28 09:14:37;;;;;;;1.83;1.30;;;8.60;99.90;;;;;;5042348;23;20538;-69
2022/09/28 09:16:57;;;;;;;2.10;0.90;;;8.60;99.90;;;;;;5040248;23;20309;-68
2022/09/28 09:19:45;;;;;;;2.57;1.10;;;8.70;99.90;;;;;;5043311;23;20246;-70
2022/09/28 09:21:51;;;;;;;1.53;1.20;;;8.60;99.90;;;;;;5041742;23;20259;-68
2022/09/28 09:23:55;;;;;;;2.33;1.20;;;8.70;99.90;;;;;;5041116;23;20603;-69
2022/09/28 09:26:04;;;;;;;2.73;1.87;;;8.80;99.90;;;;;;5043043;23;20179;-69
2022/09/28 09:28:23;;;;;;;3.50;1.50;;;8.90;99.90;;;;;;5043341;23;20428;-68
2022/09/28 09:30:25;;;;;;;3.07;1.47;;;8.90;99.90;;;;;;5041878;23;20217;-68
2022/09/28 09:32:32;;;;;;;2.33;1.20;;;9.00;99.90;;;;;;5042728;23;20189;-68
2022/09/28 09:34:43;;;;;;;3.33;1.33;;;9.00;99.90;;;;;;5066905;23;20160;-69
2022/09/28 09:37:19;;;;;;;1.70;1.30;;;8.90;99.90;;;;;;5066446;23;20191;-68
2022/09/28 09:39:41;;;;;;;1.70;0.97;;;9.10;99.90;;;;;;5066855;23;20150;-68
2022/09/28 09:41:53;;;;;;;2.87;1.60;;;8.80;99.90;;;;;;5065907;23;20175;-67
2022/09/28 09:44:12;;;;;;;2.50;1.00;;;8.80;99.90;;;;;;5067468;23;20173;-68
2022/09/28 09:46:36;;;;;;;1.30;1.10;;;8.90;99.90;;;;;;5066735;23;20245;-70
2022/09/28 09:49:02;;;;;;;2.73;1.50;;;9.20;99.90;;;;;;5066870;23;20229;-68
2022/09/28 09:51:16;;;;;;;1.00;0.90;;;9.00;99.90;;;;;;5066309;23;20150;-66
2022/09/28 09:53:28;;;;;;;1.93;1.10;;;9.00;99.90;;;;;;5066840;23;20178;-70
2022/09/28 09:55:44;;;;;;;4.60;1.20;;;9.20;99.90;;;;;;5041341;23;20273;-68
2022/09/28 09:57:50;;;;;;;2.13;1.20;;;9.10;99.90;;;;;;5066774;23;20534;-69
2022/09/28 09:59:51;;;;;;;1.53;1.07;;;9.30;99.90;;;;;;5067309;23;20234;-68
2022/09/28 10:01:54;;;;;;;1.83;1.10;;;9.40;99.90;;;;;;5040317;23;20743;-69
2022/09/28 10:03:57;;;;;;;5.23;1.30;;;9.20;99.90;;;;;;5067327;23;20165;-68
2022/09/28 10:06:04;;;;;;;1.33;1.00;;;9.40;99.90;;;;;;5066824;23;20169;-67
2022/09/28 10:08:08;;;;;;;1.70;1.23;;;9.60;99.90;;;;;;5066855;23;20233;-70
2022/09/28 10:10:19;;;;;;;2.43;0.90;;;9.70;99.90;;;;;;5041169;23;20166;-68
2022/09/28 10:12:22;;;;;;;2.93;1.13;;;9.60;99.90;;;;;;5067433;23;20193;-69
2022/09/28 10:14:24;;;;;;;3.20;1.30;;;9.40;99.90;;;;;;5066463;23;20159;-68
2022/09/28 10:16:24;;;;;;;2.37;1.57;;;9.50;99.90;;;;;;5066676;23;20157;-68
2022/09/28 10:18:26;;;;;;;2.50;1.17;;;9.40;99.90;;;;;;5066199;23;20478;-68
2022/09/28 10:20:31;;;;;;;2.00;1.33;;;9.50;99.90;;;;;;5065219;23;20190;-68
2022/09/28 10:22:32;;;;;;;2.03;1.20;;;9.20;99.90;;;;;;5066034;23;20701;-69
2022/09/28 10:24:41;;;;;;;1.10;0.90;;;8.90;99.90;;;;;;5066203;23;20165;-67
2022/09/28 10:26:47;;;;;;;1.40;1.30;;;9.00;99.90;;;;;;5066543;23;20686;-68
2022/09/28 10:28:50;;;;;;;2.23;1.20;;;9.20;99.90;;;;;;5066438;23;20147;-71
2022/09/28 10:30:51;;;;;;;1.50;0.93;;;9.10;99.90;;;;;;5065971;23;20177;-69
2022/09/28 10:32:57;;;;;;;1.63;1.00;;;9.10;99.90;;;;;;5066286;23;20202;-69
2022/09/28 10:35:20;;;;;;;3.23;1.30;;;9.00;99.90;;;;;;5066853;23;20154;-68
2022/09/28 10:37:23;;;;;;;2.57;1.20;;;8.90;99.90;;;;;;5066758;23;20225;-67
2022/09/28 10:39:35;;;;;;;1.27;0.90;;;8.80;99.90;;;;;;5066522;23;20162;-69
2022/09/28 10:41:48;;;;;;;2.13;1.00;;;8.70;99.90;;;;;;5065465;23;20266;-71
2022/09/28 10:44:07;;;;;;;1.17;0.80;;;8.60;99.90;;;;;;5066005;23;20219;-71
2022/09/28 10:46:20;;;;;;;1.10;1.00;;;8.70;99.90;;;;;;5065867;23;20142;-71
2022/09/28 10:48:21;;;;;;;2.07;1.00;;;9.00;99.90;;;;;;5066405;23;20149;-70
2022/09/28 10:50:25;;;;;;;1.10;0.90;;;9.50;99.90;;;;;;5065399;23;20159;-72
2022/09/28 10:52:41;;;;;;;1.70;1.00;;;9.70;99.90;;;;;;5065862;23;20197;-72
2022/09/28 10:54:51;;;;;;;1.80;0.80;;;10.00;99.90;;;;;;5065957;23;20189;-70
2022/09/28 10:56:54;;;;;;;1.37;0.87;;;10.00;99.90;;;;;;5065614;23;20147;-71
2022/09/28 10:58:54;;;;;;;2.90;0.90;;;10.00;99.90;;;;;;5065727;23;20507;-70
2022/09/28 11:01:17;;;;;;;1.40;0.93;;;10.30;99.90;;;;;;5038557;23;20222;-70
2022/09/28 11:03:24;;;;;;;2.80;0.80;;;10.40;99.90;;;;;;5039811;23;20193;-69
2022/09/28 11:05:26;;;;;;;1.33;1.00;;;10.10;99.90;;;;;;5065735;23;20158;-69
2022/09/28 11:07:33;;;;;;;1.60;0.97;;;10.00;99.90;;;;;;5065471;23;20790;-68
2022/09/28 11:09:41;;;;;;;2.57;1.10;;;9.80;99.90;;;;;;5065378;23;20178;-68